sensor_id;sensor_type;location;lat;lon;timestamp;P1;durP1;ratioP1;P2;durP2;ratioP2
65717;SDS011;52445;52.466;-1.016;2023-08-01T00:00:08;7.13;;;3.45;;
65717;SDS011;52445;52.466;-1.016;2023-08-01T00:02:36;8.80;;;3.55;;
65717;SDS011;52445;52.466;-1.016;2023-08-01T00:05:03;6.25;;;2.83;;
65717;SDS011;52445;52.466;-1.016;2023-08-01T00:07:30;5.13;;;2.53;;
65717;SDS011;52445;52.466;-1.016;2023-08-01T00:10:00;6.97;;;2.60;;
65717;SDS011;52445;52.466;-1.016;2023-08-01T00:12:26;8.40;;;2.92;;
65717;SDS011;52445;52.466;-1.016;2023-08-01T00:14:53;4.93;;;1.52;;
65717;SDS011;52445;52.466;-1.016;2023-08-01T00:17:20;7.45;;;3.08;;
65717;SDS011;52445;52.466;-1.016;2023-08-01T00:19:47;5.47;;;2.78;;
65717;SDS011;52445;52.466;-1.016;2023-08-01T00:22:13;7.65;;;3.30;;
65717;SDS011;52445;52.466;-1.016;2023-08-01T00:24:40;7.75;;;2.75;;
65717;SDS011;52445;52.466;-1.016;2023-08-01T00:27:07;9.15;;;2.78;;
65717;SDS011;52445;52.466;-1.016;2023-08-01T00:29:36;8.57;;;3.22;;
65717;SDS011;52445;52.466;-1.016;2023-08-01T00:32:03;7.13;;;2.85;;
65717;SDS011;52445;52.466;-1.016;2023-08-01T00:34:29;7.82;;;3.22;;
65717;SDS011;52445;52.466;-1.016;2023-08-01T00:36:57;7.68;;;3.15;;
65717;SDS011;52445;52.466;-1.016;2023-08-01T00:39:24;7.25;;;2.47;;
65717;SDS011;52445;52.466;-1.016;2023-08-01T00:41:50;5.13;;;3.30;;
65717;SDS011;52445;52.466;-1.016;2023-08-01T00:44:17;6.55;;;2.88;;
65717;SDS011;52445;52.466;-1.016;2023-08-01T00:46:44;8.52;;;3.67;;
65717;SDS011;52445;52.466;-1.016;2023-08-01T00:49:11;4.15;;;2.53;;
65717;SDS011;52445;52.466;-1.016;2023-08-01T00:51:38;5.75;;;2.58;;
65717;SDS011;52445;52.466;-1.016;2023-08-01T00:54:05;6.57;;;3.58;;
65717;SDS011;52445;52.466;-1.016;2023-08-01T00:56:32;5.70;;;2.78;;
65717;SDS011;52445;52.466;-1.016;2023-08-01T00:58:59;6.20;;;2.58;;
65717;SDS011;52445;52.466;-1.016;2023-08-01T01:01:27;7.82;;;3.42;;
65717;SDS011;52445;52.466;-1.016;2023-08-01T01:03:54;4.97;;;2.65;;
65717;SDS011;52445;52.466;-1.016;2023-08-01T01:06:24;7.18;;;2.72;;
65717;SDS011;52445;52.466;-1.016;2023-08-01T01:08:58;5.15;;;3.85;;
65717;SDS011;52445;52.466;-1.016;2023-08-01T01:11:25;7.10;;;3.00;;
65717;SDS011;52445;52.466;-1.016;2023-08-01T01:13:52;7.45;;;2.97;;
65717;SDS011;52445;52.466;-1.016;2023-08-01T01:16:20;5.93;;;3.58;;
65717;SDS011;52445;52.466;-1.016;2023-08-01T01:18:47;8.45;;;3.10;;
65717;SDS011;52445;52.466;-1.016;2023-08-01T01:21:13;6.00;;;1.90;;
65717;SDS011;52445;52.466;-1.016;2023-08-01T01:23:40;7.82;;;2.97;;
65717;SDS011;52445;52.466;-1.016;2023-08-01T01:26:07;7.53;;;1.98;;
65717;SDS011;52445;52.466;-1.016;2023-08-01T01:28:35;8.20;;;3.17;;
65717;SDS011;52445;52.466;-1.016;2023-08-01T01:31:03;8.45;;;2.95;;
65717;SDS011;52445;52.466;-1.016;2023-08-01T01:33:30;6.20;;;2.80;;
65717;SDS011;52445;52.466;-1.016;2023-08-01T01:35:57;5.15;;;2.40;;
65717;SDS011;52445;52.466;-1.016;2023-08-01T01:38:23;6.25;;;1.90;;
65717;SDS011;52445;52.466;-1.016;2023-08-01T01:40:50;6.13;;;2.90;;
65717;SDS011;52445;52.466;-1.016;2023-08-01T01:43:17;5.75;;;2.47;;
65717;SDS011;52445;52.466;-1.016;2023-08-01T01:45:43;6.25;;;3.08;;
65717;SDS011;52445;52.466;-1.016;2023-08-01T01:48:10;7.85;;;2.83;;
65717;SDS011;52445;52.466;-1.016;2023-08-01T01:50:36;5.28;;;3.15;;
65717;SDS011;52445;52.466;-1.016;2023-08-01T01:53:03;4.20;;;2.33;;
65717;SDS011;52445;52.466;-1.016;2023-08-01T01:55:30;7.60;;;2.60;;
65717;SDS011;52445;52.466;-1.016;2023-08-01T01:57:56;6.18;;;2.33;;
65717;SDS011;52445;52.466;-1.016;2023-08-01T02:00:23;7.10;;;2.70;;
65717;SDS011;52445;52.466;-1.016;2023-08-01T02:02:50;5.93;;;2.85;;
65717;SDS011;52445;52.466;-1.016;2023-08-01T02:05:16;4.45;;;2.40;;
65717;SDS011;52445;52.466;-1.016;2023-08-01T02:07:43;5.95;;;2.58;;
65717;SDS011;52445;52.466;-1.016;2023-08-01T02:10:10;8.40;;;3.55;;
65717;SDS011;52445;52.466;-1.016;2023-08-01T02:12:36;4.97;;;2.58;;
65717;SDS011;52445;52.466;-1.016;2023-08-01T02:15:03;5.75;;;2.78;;
65717;SDS011;52445;52.466;-1.016;2023-08-01T02:17:30;9.52;;;2.95;;
65717;SDS011;52445;52.466;-1.016;2023-08-01T02:19:57;6.28;;;3.03;;
65717;SDS011;52445;52.466;-1.016;2023-08-01T02:22:24;4.88;;;2.90;;
65717;SDS011;52445;52.466;-1.016;2023-08-01T02:24:51;7.90;;;2.80;;
65717;SDS011;52445;52.466;-1.016;2023-08-01T02:27:18;5.20;;;2.75;;
65717;SDS011;52445;52.466;-1.016;2023-08-01T02:29:45;7.78;;;2.78;;
65717;SDS011;52445;52.466;-1.016;2023-08-01T02:32:11;5.53;;;2.45;;
65717;SDS011;52445;52.466;-1.016;2023-08-01T02:34:38;6.32;;;2.83;;
65717;SDS011;52445;52.466;-1.016;2023-08-01T02:37:05;6.70;;;2.72;;
65717;SDS011;52445;52.466;-1.016;2023-08-01T02:39:31;10.48;;;2.63;;
65717;SDS011;52445;52.466;-1.016;2023-08-01T02:41:58;9.40;;;3.25;;
65717;SDS011;52445;52.466;-1.016;2023-08-01T02:44:25;8.20;;;2.83;;
65717;SDS011;52445;52.466;-1.016;2023-08-01T02:46:53;13.73;;;2.92;;
65717;SDS011;52445;52.466;-1.016;2023-08-01T02:49:19;8.85;;;3.00;;
65717;SDS011;52445;52.466;-1.016;2023-08-01T02:51:46;7.57;;;2.78;;
65717;SDS011;52445;52.466;-1.016;2023-08-01T02:54:12;7.65;;;3.47;;
65717;SDS011;52445;52.466;-1.016;2023-08-01T02:56:39;6.45;;;3.15;;
65717;SDS011;52445;52.466;-1.016;2023-08-01T02:59:08;7.97;;;2.88;;
65717;SDS011;52445;52.466;-1.016;2023-08-01T03:01:35;10.05;;;2.92;;
65717;SDS011;52445;52.466;-1.016;2023-08-01T03:04:03;9.38;;;3.53;;
65717;SDS011;52445;52.466;-1.016;2023-08-01T03:06:31;6.10;;;2.53;;
65717;SDS011;52445;52.466;-1.016;2023-08-01T03:08:58;9.30;;;2.80;;
65717;SDS011;52445;52.466;-1.016;2023-08-01T03:11:26;6.28;;;2.88;;
65717;SDS011;52445;52.466;-1.016;2023-08-01T03:13:52;5.85;;;2.42;;
65717;SDS011;52445;52.466;-1.016;2023-08-01T03:16:19;7.95;;;2.78;;
65717;SDS011;52445;52.466;-1.016;2023-08-01T03:18:46;7.75;;;2.20;;
65717;SDS011;52445;52.466;-1.016;2023-08-01T03:21:12;9.90;;;3.40;;
65717;SDS011;52445;52.466;-1.016;2023-08-01T03:23:39;6.38;;;2.13;;
65717;SDS011;52445;52.466;-1.016;2023-08-01T03:26:06;7.40;;;2.42;;
65717;SDS011;52445;52.466;-1.016;2023-08-01T03:28:32;6.30;;;2.83;;
65717;SDS011;52445;52.466;-1.016;2023-08-01T03:30:59;4.30;;;2.38;;
65717;SDS011;52445;52.466;-1.016;2023-08-01T03:33:26;5.05;;;2.47;;
65717;SDS011;52445;52.466;-1.016;2023-08-01T03:35:53;9.50;;;2.38;;
65717;SDS011;52445;52.466;-1.016;2023-08-01T03:38:19;5.22;;;2.63;;
65717;SDS011;52445;52.466;-1.016;2023-08-01T03:40:46;7.43;;;2.60;;
65717;SDS011;52445;52.466;-1.016;2023-08-01T03:43:13;6.63;;;3.05;;
65717;SDS011;52445;52.466;-1.016;2023-08-01T03:45:39;6.35;;;2.60;;
65717;SDS011;52445;52.466;-1.016;2023-08-01T03:48:06;6.20;;;2.38;;
65717;SDS011;52445;52.466;-1.016;2023-08-01T03:50:33;4.78;;;2.28;;
65717;SDS011;52445;52.466;-1.016;2023-08-01T03:52:59;6.88;;;2.63;;
65717;SDS011;52445;52.466;-1.016;2023-08-01T03:55:26;7.95;;;2.45;;
65717;SDS011;52445;52.466;-1.016;2023-08-01T03:57:53;7.07;;;2.53;;
65717;SDS011;52445;52.466;-1.016;2023-08-01T04:00:19;7.20;;;2.38;;
65717;SDS011;52445;52.466;-1.016;2023-08-01T04:02:46;6.97;;;2.70;;
65717;SDS011;52445;52.466;-1.016;2023-08-01T04:05:14;7.88;;;2.72;;
65717;SDS011;52445;52.466;-1.016;2023-08-01T04:07:41;6.53;;;2.72;;
65717;SDS011;52445;52.466;-1.016;2023-08-01T04:10:08;5.57;;;2.13;;
65717;SDS011;52445;52.466;-1.016;2023-08-01T04:12:35;6.25;;;2.03;;
65717;SDS011;52445;52.466;-1.016;2023-08-01T04:15:02;3.13;;;1.15;;
65717;SDS011;52445;52.466;-1.016;2023-08-01T04:17:29;7.63;;;2.97;;
65717;SDS011;52445;52.466;-1.016;2023-08-01T04:19:56;7.30;;;3.30;;
65717;SDS011;52445;52.466;-1.016;2023-08-01T04:22:23;4.85;;;2.55;;
65717;SDS011;52445;52.466;-1.016;2023-08-01T04:24:49;3.72;;;2.47;;
65717;SDS011;52445;52.466;-1.016;2023-08-01T04:27:17;5.38;;;2.30;;
65717;SDS011;52445;52.466;-1.016;2023-08-01T04:29:43;4.25;;;2.65;;
65717;SDS011;52445;52.466;-1.016;2023-08-01T04:32:10;3.40;;;2.15;;
65717;SDS011;52445;52.466;-1.016;2023-08-01T04:34:40;4.97;;;2.72;;
65717;SDS011;52445;52.466;-1.016;2023-08-01T04:37:08;3.83;;;2.22;;
65717;SDS011;52445;52.466;-1.016;2023-08-01T04:39:34;3.95;;;1.95;;
65717;SDS011;52445;52.466;-1.016;2023-08-01T04:42:01;5.68;;;3.03;;
65717;SDS011;52445;52.466;-1.016;2023-08-01T04:44:28;6.43;;;2.33;;
65717;SDS011;52445;52.466;-1.016;2023-08-01T04:46:56;4.55;;;2.30;;
65717;SDS011;52445;52.466;-1.016;2023-08-01T04:49:22;3.50;;;2.47;;
65717;SDS011;52445;52.466;-1.016;2023-08-01T04:51:50;4.57;;;3.15;;
65717;SDS011;52445;52.466;-1.016;2023-08-01T04:54:17;7.55;;;2.25;;
65717;SDS011;52445;52.466;-1.016;2023-08-01T04:56:44;5.15;;;2.10;;
65717;SDS011;52445;52.466;-1.016;2023-08-01T04:59:11;8.63;;;2.65;;
65717;SDS011;52445;52.466;-1.016;2023-08-01T05:01:37;8.48;;;1.83;;
65717;SDS011;52445;52.466;-1.016;2023-08-01T05:04:04;7.00;;;1.38;;
65717;SDS011;52445;52.466;-1.016;2023-08-01T05:06:31;4.75;;;1.83;;
65717;SDS011;52445;52.466;-1.016;2023-08-01T05:08:57;5.05;;;2.13;;
65717;SDS011;52445;52.466;-1.016;2023-08-01T05:11:24;3.38;;;1.73;;
65717;SDS011;52445;52.466;-1.016;2023-08-01T05:13:51;7.63;;;1.85;;
65717;SDS011;52445;52.466;-1.016;2023-08-01T05:16:18;4.63;;;2.17;;
65717;SDS011;52445;52.466;-1.016;2023-08-01T05:18:45;3.35;;;1.77;;
65717;SDS011;52445;52.466;-1.016;2023-08-01T05:21:11;6.65;;;2.42;;
65717;SDS011;52445;52.466;-1.016;2023-08-01T05:23:38;3.28;;;2.30;;
65717;SDS011;52445;52.466;-1.016;2023-08-01T05:26:05;3.78;;;2.03;;
65717;SDS011;52445;52.466;-1.016;2023-08-01T05:28:31;6.57;;;1.80;;
65717;SDS011;52445;52.466;-1.016;2023-08-01T05:30:58;3.53;;;2.75;;
65717;SDS011;52445;52.466;-1.016;2023-08-01T05:33:25;3.35;;;2.15;;
65717;SDS011;52445;52.466;-1.016;2023-08-01T05:35:51;5.97;;;2.47;;
65717;SDS011;52445;52.466;-1.016;2023-08-01T05:38:18;3.58;;;1.23;;
65717;SDS011;52445;52.466;-1.016;2023-08-01T05:40:45;5.55;;;3.13;;
65717;SDS011;52445;52.466;-1.016;2023-08-01T05:43:11;8.15;;;2.50;;
65717;SDS011;52445;52.466;-1.016;2023-08-01T05:45:38;5.30;;;2.53;;
65717;SDS011;52445;52.466;-1.016;2023-08-01T05:48:05;5.30;;;2.80;;
65717;SDS011;52445;52.466;-1.016;2023-08-01T05:50:32;6.20;;;2.40;;
65717;SDS011;52445;52.466;-1.016;2023-08-01T05:52:58;6.80;;;2.95;;
65717;SDS011;52445;52.466;-1.016;2023-08-01T05:55:25;8.77;;;2.50;;
65717;SDS011;52445;52.466;-1.016;2023-08-01T05:57:52;2.90;;;2.00;;
65717;SDS011;52445;52.466;-1.016;2023-08-01T06:00:19;4.03;;;1.30;;
65717;SDS011;52445;52.466;-1.016;2023-08-01T06:02:47;5.13;;;2.25;;
65717;SDS011;52445;52.466;-1.016;2023-08-01T06:05:15;7.82;;;1.25;;
65717;SDS011;52445;52.466;-1.016;2023-08-01T06:07:41;4.03;;;2.75;;
65717;SDS011;52445;52.466;-1.016;2023-08-01T06:10:08;4.57;;;2.00;;
65717;SDS011;52445;52.466;-1.016;2023-08-01T06:12:35;8.90;;;1.77;;
65717;SDS011;52445;52.466;-1.016;2023-08-01T06:15:02;3.15;;;2.28;;
65717;SDS011;52445;52.466;-1.016;2023-08-01T06:17:30;4.00;;;1.80;;
65717;SDS011;52445;52.466;-1.016;2023-08-01T06:19:56;3.72;;;1.77;;
65717;SDS011;52445;52.466;-1.016;2023-08-01T06:22:23;3.75;;;2.30;;
65717;SDS011;52445;52.466;-1.016;2023-08-01T06:24:50;8.25;;;2.75;;
65717;SDS011;52445;52.466;-1.016;2023-08-01T06:27:16;8.73;;;2.92;;
65717;SDS011;52445;52.466;-1.016;2023-08-01T06:29:44;5.15;;;2.00;;
65717;SDS011;52445;52.466;-1.016;2023-08-01T06:32:10;4.20;;;1.15;;
65717;SDS011;52445;52.466;-1.016;2023-08-01T06:34:37;3.55;;;1.10;;
65717;SDS011;52445;52.466;-1.016;2023-08-01T06:37:04;5.30;;;1.73;;
65717;SDS011;52445;52.466;-1.016;2023-08-01T06:39:31;3.72;;;2.85;;
65717;SDS011;52445;52.466;-1.016;2023-08-01T06:41:58;1.77;;;1.08;;
65717;SDS011;52445;52.466;-1.016;2023-08-01T06:44:24;4.10;;;2.45;;
65717;SDS011;52445;52.466;-1.016;2023-08-01T06:46:51;3.45;;;2.45;;
65717;SDS011;52445;52.466;-1.016;2023-08-01T06:49:18;3.80;;;2.35;;
65717;SDS011;52445;52.466;-1.016;2023-08-01T06:51:44;2.95;;;2.20;;
65717;SDS011;52445;52.466;-1.016;2023-08-01T06:54:11;7.68;;;2.28;;
65717;SDS011;52445;52.466;-1.016;2023-08-01T06:56:38;5.60;;;2.03;;
65717;SDS011;52445;52.466;-1.016;2023-08-01T06:59:05;3.50;;;1.73;;
65717;SDS011;52445;52.466;-1.016;2023-08-01T07:01:32;3.78;;;2.30;;
65717;SDS011;52445;52.466;-1.016;2023-08-01T07:03:59;4.47;;;2.28;;
65717;SDS011;52445;52.466;-1.016;2023-08-01T07:06:26;3.25;;;1.70;;
65717;SDS011;52445;52.466;-1.016;2023-08-01T07:08:52;8.65;;;2.38;;
65717;SDS011;52445;52.466;-1.016;2023-08-01T07:11:19;3.85;;;1.70;;
65717;SDS011;52445;52.466;-1.016;2023-08-01T07:13:46;4.00;;;1.60;;
65717;SDS011;52445;52.466;-1.016;2023-08-01T07:16:12;2.03;;;1.63;;
65717;SDS011;52445;52.466;-1.016;2023-08-01T07:18:39;3.75;;;1.75;;
65717;SDS011;52445;52.466;-1.016;2023-08-01T07:21:06;4.82;;;1.63;;
65717;SDS011;52445;52.466;-1.016;2023-08-01T07:23:33;5.05;;;1.80;;
65717;SDS011;52445;52.466;-1.016;2023-08-01T07:26:00;5.22;;;1.73;;
65717;SDS011;52445;52.466;-1.016;2023-08-01T07:28:27;5.18;;;1.20;;
65717;SDS011;52445;52.466;-1.016;2023-08-01T07:31:02;2.92;;;1.88;;
65717;SDS011;52445;52.466;-1.016;2023-08-01T07:33:31;4.45;;;2.15;;
65717;SDS011;52445;52.466;-1.016;2023-08-01T07:35:59;4.25;;;1.48;;
65717;SDS011;52445;52.466;-1.016;2023-08-01T07:38:26;6.07;;;1.48;;
65717;SDS011;52445;52.466;-1.016;2023-08-01T07:40:55;3.20;;;1.23;;
65717;SDS011;52445;52.466;-1.016;2023-08-01T07:43:22;5.03;;;2.00;;
65717;SDS011;52445;52.466;-1.016;2023-08-01T07:45:49;3.03;;;1.30;;
65717;SDS011;52445;52.466;-1.016;2023-08-01T07:48:21;4.28;;;1.48;;
65717;SDS011;52445;52.466;-1.016;2023-08-01T07:50:48;2.40;;;1.58;;
65717;SDS011;52445;52.466;-1.016;2023-08-01T07:53:15;4.40;;;1.70;;
65717;SDS011;52445;52.466;-1.016;2023-08-01T07:55:41;3.42;;;2.05;;
65717;SDS011;52445;52.466;-1.016;2023-08-01T07:58:08;4.35;;;2.05;;
65717;SDS011;52445;52.466;-1.016;2023-08-01T08:00:35;3.40;;;1.63;;
65717;SDS011;52445;52.466;-1.016;2023-08-01T08:03:02;5.68;;;1.70;;
65717;SDS011;52445;52.466;-1.016;2023-08-01T08:05:29;3.15;;;1.83;;
65717;SDS011;52445;52.466;-1.016;2023-08-01T08:07:55;4.65;;;1.83;;
65717;SDS011;52445;52.466;-1.016;2023-08-01T08:10:22;5.80;;;2.42;;
65717;SDS011;52445;52.466;-1.016;2023-08-01T08:12:49;3.00;;;0.80;;
65717;SDS011;52445;52.466;-1.016;2023-08-01T08:15:16;3.30;;;1.40;;
65717;SDS011;52445;52.466;-1.016;2023-08-01T08:17:43;4.38;;;1.95;;
65717;SDS011;52445;52.466;-1.016;2023-08-01T08:20:10;4.05;;;1.27;;
65717;SDS011;52445;52.466;-1.016;2023-08-01T08:22:36;2.42;;;1.80;;
65717;SDS011;52445;52.466;-1.016;2023-08-01T08:25:03;4.38;;;2.00;;
65717;SDS011;52445;52.466;-1.016;2023-08-01T08:27:30;5.28;;;1.95;;
65717;SDS011;52445;52.466;-1.016;2023-08-01T08:29:56;2.20;;;1.48;;
65717;SDS011;52445;52.466;-1.016;2023-08-01T08:32:23;2.63;;;1.95;;
65717;SDS011;52445;52.466;-1.016;2023-08-01T08:34:50;2.58;;;1.50;;
65717;SDS011;52445;52.466;-1.016;2023-08-01T08:37:17;4.75;;;1.60;;
65717;SDS011;52445;52.466;-1.016;2023-08-01T08:39:43;3.60;;;2.15;;
65717;SDS011;52445;52.466;-1.016;2023-08-01T08:42:10;4.20;;;1.90;;
65717;SDS011;52445;52.466;-1.016;2023-08-01T08:44:42;3.97;;;2.20;;
65717;SDS011;52445;52.466;-1.016;2023-08-01T08:47:10;2.95;;;2.45;;
65717;SDS011;52445;52.466;-1.016;2023-08-01T08:49:37;2.72;;;1.10;;
65717;SDS011;52445;52.466;-1.016;2023-08-01T08:52:05;2.13;;;1.85;;
65717;SDS011;52445;52.466;-1.016;2023-08-01T08:54:32;4.40;;;1.60;;
65717;SDS011;52445;52.466;-1.016;2023-08-01T08:57:00;3.08;;;1.65;;
65717;SDS011;52445;52.466;-1.016;2023-08-01T08:59:27;4.10;;;2.00;;
65717;SDS011;52445;52.466;-1.016;2023-08-01T09:04:23;2.40;;;0.68;;
65717;SDS011;52445;52.466;-1.016;2023-08-01T09:06:49;3.20;;;1.98;;
65717;SDS011;52445;52.466;-1.016;2023-08-01T09:09:17;4.82;;;1.35;;
65717;SDS011;52445;52.466;-1.016;2023-08-01T09:11:46;3.58;;;1.58;;
65717;SDS011;52445;52.466;-1.016;2023-08-01T09:14:16;3.67;;;2.03;;
65717;SDS011;52445;52.466;-1.016;2023-08-01T09:16:47;5.60;;;1.67;;
65717;SDS011;52445;52.466;-1.016;2023-08-01T09:19:17;3.20;;;1.85;;
65717;SDS011;52445;52.466;-1.016;2023-08-01T09:21:46;4.13;;;1.90;;
65717;SDS011;52445;52.466;-1.016;2023-08-01T09:24:14;3.67;;;1.42;;
65717;SDS011;52445;52.466;-1.016;2023-08-01T09:26:42;5.03;;;2.38;;
65717;SDS011;52445;52.466;-1.016;2023-08-01T09:29:10;5.15;;;2.20;;
65717;SDS011;52445;52.466;-1.016;2023-08-01T09:31:38;2.70;;;1.77;;
65717;SDS011;52445;52.466;-1.016;2023-08-01T09:34:17;3.30;;;1.67;;
65717;SDS011;52445;52.466;-1.016;2023-08-01T09:36:45;3.08;;;1.85;;
65717;SDS011;52445;52.466;-1.016;2023-08-01T09:39:20;3.28;;;1.70;;
65717;SDS011;52445;52.466;-1.016;2023-08-01T09:41:55;6.85;;;1.90;;
65717;SDS011;52445;52.466;-1.016;2023-08-01T09:44:34;2.42;;;1.00;;
65717;SDS011;52445;52.466;-1.016;2023-08-01T09:47:02;2.60;;;1.20;;
65717;SDS011;52445;52.466;-1.016;2023-08-01T09:49:30;3.78;;;0.55;;
65717;SDS011;52445;52.466;-1.016;2023-08-01T09:51:58;2.58;;;0.68;;
65717;SDS011;52445;52.466;-1.016;2023-08-01T09:54:25;2.38;;;0.70;;
65717;SDS011;52445;52.466;-1.016;2023-08-01T09:56:52;4.55;;;1.02;;
65717;SDS011;52445;52.466;-1.016;2023-08-01T09:59:21;3.00;;;0.60;;
65717;SDS011;52445;52.466;-1.016;2023-08-01T10:01:50;2.67;;;0.75;;
65717;SDS011;52445;52.466;-1.016;2023-08-01T10:04:19;3.55;;;1.67;;
65717;SDS011;52445;52.466;-1.016;2023-08-01T10:06:50;5.75;;;0.70;;
65717;SDS011;52445;52.466;-1.016;2023-08-01T10:09:21;2.10;;;0.40;;
65717;SDS011;52445;52.466;-1.016;2023-08-01T10:11:49;4.05;;;0.93;;
65717;SDS011;52445;52.466;-1.016;2023-08-01T10:14:19;3.35;;;0.70;;
65717;SDS011;52445;52.466;-1.016;2023-08-01T10:16:47;3.13;;;0.52;;
65717;SDS011;52445;52.466;-1.016;2023-08-01T10:19:14;2.53;;;0.50;;
65717;SDS011;52445;52.466;-1.016;2023-08-01T10:21:42;3.80;;;0.90;;
65717;SDS011;52445;52.466;-1.016;2023-08-01T10:24:09;2.40;;;0.85;;
65717;SDS011;52445;52.466;-1.016;2023-08-01T10:26:38;2.38;;;0.50;;
65717;SDS011;52445;52.466;-1.016;2023-08-01T10:29:05;2.95;;;1.27;;
65717;SDS011;52445;52.466;-1.016;2023-08-01T10:31:31;2.08;;;0.60;;
65717;SDS011;52445;52.466;-1.016;2023-08-01T10:34:03;1.20;;;0.50;;
65717;SDS011;52445;52.466;-1.016;2023-08-01T10:36:33;3.33;;;0.80;;
65717;SDS011;52445;52.466;-1.016;2023-08-01T10:39:01;1.88;;;0.40;;
65717;SDS011;52445;52.466;-1.016;2023-08-01T10:41:30;1.90;;;0.82;;
65717;SDS011;52445;52.466;-1.016;2023-08-01T10:44:14;1.30;;;0.80;;
65717;SDS011;52445;52.466;-1.016;2023-08-01T10:49:37;1.85;;;0.60;;
65717;SDS011;52445;52.466;-1.016;2023-08-01T10:52:23;2.20;;;0.60;;
65717;SDS011;52445;52.466;-1.016;2023-08-01T10:57:35;2.13;;;1.98;;
65717;SDS011;52445;52.466;-1.016;2023-08-01T11:00:04;3.40;;;1.77;;
65717;SDS011;52445;52.466;-1.016;2023-08-01T11:02:40;5.00;;;1.90;;
65717;SDS011;52445;52.466;-1.016;2023-08-01T11:05:10;2.65;;;1.92;;
65717;SDS011;52445;52.466;-1.016;2023-08-01T11:07:37;7.15;;;2.88;;
65717;SDS011;52445;52.466;-1.016;2023-08-01T11:10:05;1.83;;;1.73;;
65717;SDS011;52445;52.466;-1.016;2023-08-01T11:12:41;3.50;;;0.55;;
65717;SDS011;52445;52.466;-1.016;2023-08-01T11:15:09;2.58;;;0.47;;
65717;SDS011;52445;52.466;-1.016;2023-08-01T11:17:39;2.28;;;0.93;;
65717;SDS011;52445;52.466;-1.016;2023-08-01T11:20:09;1.98;;;0.70;;
65717;SDS011;52445;52.466;-1.016;2023-08-01T11:22:38;1.92;;;0.60;;
65717;SDS011;52445;52.466;-1.016;2023-08-01T11:25:14;1.65;;;0.60;;
65717;SDS011;52445;52.466;-1.016;2023-08-01T11:27:41;4.00;;;0.68;;
65717;SDS011;52445;52.466;-1.016;2023-08-01T11:30:08;2.55;;;0.57;;
65717;SDS011;52445;52.466;-1.016;2023-08-01T11:32:36;1.52;;;0.43;;
65717;SDS011;52445;52.466;-1.016;2023-08-01T11:35:04;1.95;;;0.70;;
65717;SDS011;52445;52.466;-1.016;2023-08-01T11:37:31;2.47;;;0.93;;
65717;SDS011;52445;52.466;-1.016;2023-08-01T11:39:59;2.28;;;0.73;;
65717;SDS011;52445;52.466;-1.016;2023-08-01T11:42:30;3.63;;;1.67;;
65717;SDS011;52445;52.466;-1.016;2023-08-01T11:45:07;2.95;;;0.70;;
65717;SDS011;52445;52.466;-1.016;2023-08-01T11:47:35;2.03;;;0.63;;
65717;SDS011;52445;52.466;-1.016;2023-08-01T11:50:02;4.93;;;0.50;;
65717;SDS011;52445;52.466;-1.016;2023-08-01T11:52:29;2.10;;;0.68;;
65717;SDS011;52445;52.466;-1.016;2023-08-01T11:54:57;1.92;;;0.50;;
65717;SDS011;52445;52.466;-1.016;2023-08-01T11:57:24;1.98;;;0.60;;
65717;SDS011;52445;52.466;-1.016;2023-08-01T11:59:51;2.72;;;0.80;;
65717;SDS011;52445;52.466;-1.016;2023-08-01T12:04:57;5.25;;;0.80;;
65717;SDS011;52445;52.466;-1.016;2023-08-01T12:07:25;2.33;;;0.70;;
65717;SDS011;52445;52.466;-1.016;2023-08-01T12:09:57;1.27;;;1.05;;
65717;SDS011;52445;52.466;-1.016;2023-08-01T12:12:26;4.45;;;1.25;;
65717;SDS011;52445;52.466;-1.016;2023-08-01T12:14:54;2.92;;;0.50;;
65717;SDS011;52445;52.466;-1.016;2023-08-01T12:17:22;3.10;;;0.82;;
65717;SDS011;52445;52.466;-1.016;2023-08-01T12:19:49;1.83;;;0.93;;
65717;SDS011;52445;52.466;-1.016;2023-08-01T12:22:16;4.93;;;1.15;;
65717;SDS011;52445;52.466;-1.016;2023-08-01T12:24:43;0.90;;;0.30;;
65717;SDS011;52445;52.466;-1.016;2023-08-01T12:27:10;1.98;;;0.40;;
65717;SDS011;52445;52.466;-1.016;2023-08-01T12:29:39;3.15;;;0.40;;
65717;SDS011;52445;52.466;-1.016;2023-08-01T12:32:06;1.20;;;0.40;;
65717;SDS011;52445;52.466;-1.016;2023-08-01T12:34:34;2.22;;;0.57;;
65717;SDS011;52445;52.466;-1.016;2023-08-01T12:37:05;2.28;;;0.75;;
65717;SDS011;52445;52.466;-1.016;2023-08-01T12:39:32;3.58;;;1.23;;
65717;SDS011;52445;52.466;-1.016;2023-08-01T12:41:59;1.77;;;1.15;;
65717;SDS011;52445;52.466;-1.016;2023-08-01T12:44:26;3.25;;;0.63;;
65717;SDS011;52445;52.466;-1.016;2023-08-01T12:46:52;4.63;;;0.80;;
65717;SDS011;52445;52.466;-1.016;2023-08-01T12:49:19;1.70;;;0.75;;
65717;SDS011;52445;52.466;-1.016;2023-08-01T12:51:46;1.67;;;0.90;;
65717;SDS011;52445;52.466;-1.016;2023-08-01T12:54:15;4.53;;;1.13;;
65717;SDS011;52445;52.466;-1.016;2023-08-01T12:56:43;3.00;;;0.60;;
65717;SDS011;52445;52.466;-1.016;2023-08-01T12:59:09;4.75;;;0.47;;
65717;SDS011;52445;52.466;-1.016;2023-08-01T13:01:36;3.85;;;0.60;;
65717;SDS011;52445;52.466;-1.016;2023-08-01T13:04:03;2.05;;;0.43;;
65717;SDS011;52445;52.466;-1.016;2023-08-01T13:06:30;1.40;;;0.88;;
65717;SDS011;52445;52.466;-1.016;2023-08-01T13:08:56;2.78;;;0.50;;
65717;SDS011;52445;52.466;-1.016;2023-08-01T13:11:23;2.38;;;0.73;;
65717;SDS011;52445;52.466;-1.016;2023-08-01T13:13:50;4.55;;;0.70;;
65717;SDS011;52445;52.466;-1.016;2023-08-01T13:16:16;1.90;;;0.60;;
65717;SDS011;52445;52.466;-1.016;2023-08-01T13:18:43;1.13;;;0.82;;
65717;SDS011;52445;52.466;-1.016;2023-08-01T13:21:11;2.05;;;0.50;;
65717;SDS011;52445;52.466;-1.016;2023-08-01T13:23:41;1.10;;;0.60;;
65717;SDS011;52445;52.466;-1.016;2023-08-01T13:26:08;1.85;;;0.57;;
65717;SDS011;52445;52.466;-1.016;2023-08-01T13:28:35;1.75;;;0.80;;
65717;SDS011;52445;52.466;-1.016;2023-08-01T13:31:02;0.88;;;0.52;;
65717;SDS011;52445;52.466;-1.016;2023-08-01T13:33:29;1.92;;;0.50;;
65717;SDS011;52445;52.466;-1.016;2023-08-01T13:35:56;1.42;;;0.75;;
65717;SDS011;52445;52.466;-1.016;2023-08-01T13:38:24;1.17;;;0.75;;
65717;SDS011;52445;52.466;-1.016;2023-08-01T13:40:51;2.45;;;0.60;;
65717;SDS011;52445;52.466;-1.016;2023-08-01T13:43:20;1.52;;;0.40;;
65717;SDS011;52445;52.466;-1.016;2023-08-01T13:45:47;2.67;;;1.15;;
65717;SDS011;52445;52.466;-1.016;2023-08-01T13:48:15;4.32;;;0.40;;
65717;SDS011;52445;52.466;-1.016;2023-08-01T13:50:42;1.92;;;0.60;;
65717;SDS011;52445;52.466;-1.016;2023-08-01T13:53:09;1.45;;;0.47;;
65717;SDS011;52445;52.466;-1.016;2023-08-01T13:55:38;1.08;;;0.80;;
65717;SDS011;52445;52.466;-1.016;2023-08-01T13:58:05;2.92;;;0.50;;
65717;SDS011;52445;52.466;-1.016;2023-08-01T14:00:31;3.33;;;0.68;;
65717;SDS011;52445;52.466;-1.016;2023-08-01T14:02:59;3.25;;;0.57;;
65717;SDS011;52445;52.466;-1.016;2023-08-01T14:05:28;1.02;;;0.68;;
65717;SDS011;52445;52.466;-1.016;2023-08-01T14:07:55;3.00;;;1.08;;
65717;SDS011;52445;52.466;-1.016;2023-08-01T14:10:23;1.75;;;0.75;;
65717;SDS011;52445;52.466;-1.016;2023-08-01T14:12:50;1.67;;;1.33;;
65717;SDS011;52445;52.466;-1.016;2023-08-01T14:15:16;1.23;;;0.60;;
65717;SDS011;52445;52.466;-1.016;2023-08-01T14:17:43;1.45;;;0.40;;
65717;SDS011;52445;52.466;-1.016;2023-08-01T14:20:10;1.05;;;0.63;;
65717;SDS011;52445;52.466;-1.016;2023-08-01T14:22:37;1.83;;;0.60;;
65717;SDS011;52445;52.466;-1.016;2023-08-01T14:25:05;1.20;;;0.43;;
65717;SDS011;52445;52.466;-1.016;2023-08-01T14:27:33;1.08;;;0.32;;
65717;SDS011;52445;52.466;-1.016;2023-08-01T14:29:59;3.75;;;0.50;;
65717;SDS011;52445;52.466;-1.016;2023-08-01T14:32:26;3.40;;;1.27;;
65717;SDS011;52445;52.466;-1.016;2023-08-01T14:34:53;2.28;;;0.50;;
65717;SDS011;52445;52.466;-1.016;2023-08-01T14:37:19;2.70;;;0.60;;
65717;SDS011;52445;52.466;-1.016;2023-08-01T14:39:50;2.40;;;0.60;;
65717;SDS011;52445;52.466;-1.016;2023-08-01T14:42:17;1.63;;;0.63;;
65717;SDS011;52445;52.466;-1.016;2023-08-01T14:44:43;1.45;;;0.50;;